• Join FlightAware (Why Join?)
  • Login
  • US Flag 
08:33AM EDT


 

Airport Tracker/Info


-or-


 

Live Flight TrackerFlight Track Log ✈ ERR240 ✈ 03-May-2013 ✈ PASA / SVA - PAOM / OME

Flight Track Log - Related Links

Times and Time Zones

All times are in EDT time to prevent confusion due to time zone crossing. See the ERR240 flight status page for this flight to view local times or setup timezone preferences in your user account.

Time Position Orientation Groundspeed Altitude Reporting Facility
EDT Latitude Longitude Course Direction KTS MPH feet Rate Location/Type
02:16PM 63.7000 -170.5500 68° East 170 196 2,900  Level Anchorage Center
02:17PM 63.7167 -170.4500 69° East 180 207 5,300 2,280 Climbing Anchorage Center
02:18PM 63.7333 -170.3333 72° East 180 207 7,600 2,280 Climbing Anchorage Center
02:19PM 63.7500 -170.2167 72° East 190 219 10,000 2,160 Climbing Anchorage Center
02:20PM 63.7667 -170.1000 72° East 190 219 12,000 1,860 Climbing Anchorage Center
02:21PM 63.8263 -169.6566 68° East  Level FlightAware Approximate
02:21PM 63.7833 -169.9833 72° East 200 230 13,800  Level Anchorage Center
02:22PM 63.8000 -169.8500 74° East 220 253 15,000 600 Climbing Anchorage Center
02:23PM 63.8167 -169.7167 74° East 240 276 15,000  Level Anchorage Center
02:24PM 63.8500 -169.5667 63° Northeast 230 265 15,000  Level Anchorage Center
02:25PM 63.8667 -169.4333 74° East 240 276 15,000  Level Anchorage Center
02:26PM 63.9000 -169.2833 63° Northeast 240 276 15,000  Level Anchorage Center
02:27PM 63.9167 -169.1500 74° East 230 265 15,000  Level Anchorage Center
02:28PM 63.9500 -169.0167 60° Northeast 240 276 15,000  Level Anchorage Center
02:29PM 63.9667 -168.8833 74° East 240 276 15,000  Level Anchorage Center
02:30PM 63.9833 -168.7333 76° East 230 265 15,000  Level Anchorage Center
02:31PM 64.0167 -168.6000 60° Northeast 230 265 15,000  Level Anchorage Center
02:32PM 64.0333 -168.4500 76° East 230 265 15,000  Level Anchorage Center
02:33PM 64.0667 -168.3167 60° Northeast 230 265 15,000  Level Anchorage Center
02:34PM 64.0833 -168.1833 74° East 230 265 15,000  Level Anchorage Center
02:35PM 64.1000 -168.0333 76° East 230 265 15,000  Level Anchorage Center
02:36PM 64.1333 -167.9000 60° Northeast 230 265 15,000  Level Anchorage Center
02:37PM 64.1500 -167.7500 76° East 230 265 15,000  Level Anchorage Center
02:38PM 64.1667 -167.6167 74° East 230 265 15,000  Level Anchorage Center
02:39PM 64.2000 -167.4833 60° Northeast 230 265 15,000  Level Anchorage Center
02:40PM 64.2167 -167.3333 76° East 230 265 15,000  Level Anchorage Center
02:41PM 64.2500 -167.2000 60° Northeast 230 265 15,000 -480 Level Anchorage Center
02:43PM 64.2833 -166.9000 76° East 250 288 13,700 -960 Descending Anchorage Center
02:44PM 64.3167 -166.7500 63° Northeast 250 288 12,100 -1,500 Descending Anchorage Center
02:45PM 64.3333 -166.5833 77° East 250 288 10,700 -1,440 Descending Anchorage Center
02:46PM 64.3500 -166.4333 76° East 250 288 9,200 -1,440 Descending Anchorage Center
02:47PM 64.3833 -166.2667 65° Northeast 250 288 7,800 -1,620 Descending Anchorage Center
02:48PM 64.4000 -166.1167 76° East 250 288 6,100 -1,560 Descending Anchorage Center
02:49PM 64.4333 -165.9667 63° Northeast 250 288 4,700 -1,380 Descending Anchorage Center
02:50PM 64.4500 -165.8167 75° East 240 276 3,400 -1,200 Descending Anchorage Center
02:51PM 64.4667 -165.6667 75° East 240 276 2,300 -1,200 Descending Anchorage Center
02:52PM 64.4833 -165.5333 74° East 230 265 1,100 -660 Descending Anchorage Center
02:53PM 64.4833 -165.4167 90° East 150 173 1,000 -420 Descending Anchorage Center
02:54PM 64.5000 -165.4000 23° Northeast 110 127 300 -720 Descending Anchorage Center
02:56PM 64.5000 -165.4333 78° East  Level FlightAware Approximate
03:03PM 64.5122 -165.4453 78° East  Level Estimated
03:04PM 64.5122 -165.4453 78° East  Level Estimated
03:05PM 64.5122 -165.4453 78° East  Level Estimated
03:06PM 64.5122 -165.4453 78° East  Level Estimated